createdAt,value
2022-11-26T00:00:40.377Z,97155.38
2022-11-26T00:03:09.531Z,97138.13
2022-11-26T00:05:36.456Z,97138.78
2022-11-26T00:08:04.492Z,97141.44
2022-11-26T00:10:35.348Z,97120.53
2022-11-26T00:13:04.449Z,97114.75
2022-11-26T00:15:33.497Z,97104.19
2022-11-26T00:18:01.653Z,97107.75
2022-11-26T00:20:30.051Z,97080.28
2022-11-26T00:22:58.452Z,97082.91
2022-11-26T00:25:31.296Z,97081.63
2022-11-26T00:27:58.041Z,97082.25
2022-11-26T00:30:28.116Z,97063.28
2022-11-26T00:32:56.384Z,97069.53
2022-11-26T00:35:23.297Z,97065.22
2022-11-26T00:37:54.620Z,97053.91
2022-11-26T00:40:23.157Z,97039.19
2022-11-26T00:42:50.005Z,97038.56
2022-11-26T00:45:21.265Z,97035.25
2022-11-26T00:47:47.853Z,97033.22
2022-11-26T00:50:22.442Z,97011.50
2022-11-26T00:52:52.005Z,97023.75
2022-11-26T00:55:33.493Z,97031.41
2022-11-26T00:57:59.904Z,97011.81
2022-11-26T01:00:28.230Z,97007.88
2022-11-26T01:02:55.513Z,97026.72
2022-11-26T01:05:22.781Z,97020.72
2022-11-26T01:07:49.673Z,96993.53
2022-11-26T01:10:17.837Z,96995.91
2022-11-26T01:12:44.380Z,96989.28
2022-11-26T01:15:11.040Z,96973.75
2022-11-26T01:17:39.153Z,96977.22
2022-11-26T01:20:16.590Z,96983.94
2022-11-26T01:22:43.068Z,96983.78
2022-11-26T01:25:09.457Z,96973.25
2022-11-26T01:27:35.841Z,96991.03
2022-11-26T01:30:02.282Z,96980.34
2022-11-26T01:32:29.724Z,96989.16
2022-11-26T01:34:56.293Z,96974.38
2022-11-26T01:37:22.678Z,96983.31
2022-11-26T01:39:51.119Z,97002.00
2022-11-26T01:42:36.319Z,97001.38
2022-11-26T01:45:02.853Z,96997.78
2022-11-26T01:47:30.051Z,97012.09
2022-11-26T01:50:15.321Z,97026.38
2022-11-26T01:52:41.728Z,97010.25
2022-11-26T01:55:14.528Z,97019.97
2022-11-26T01:57:40.905Z,97027.06
2022-11-26T02:00:07.806Z,97019.34
2022-11-26T02:02:35.053Z,97031.94
2022-11-26T02:05:23.369Z,97015.63
2022-11-26T02:07:50.556Z,97011.84
2022-11-26T02:10:17.097Z,97006.94
2022-11-26T02:12:43.588Z,97016.25
2022-11-26T02:15:10.789Z,97016.41
2022-11-26T02:17:37.187Z,97029.28
2022-11-26T02:20:16.632Z,97034.16
2022-11-26T02:22:49.105Z,97033.88
2022-11-26T02:25:27.751Z,97019.88
2022-11-26T02:28:29.733Z,97021.00
2022-11-26T02:31:03.119Z,97028.56
2022-11-26T02:33:45.276Z,97033.28
2022-11-26T02:36:15.005Z,97035.16
2022-11-26T02:38:41.476Z,97049.00
2022-11-26T02:41:09.089Z,97060.16
2022-11-26T02:43:36.641Z,97062.53
2022-11-26T02:46:07.245Z,97055.31
2022-11-26T02:48:36.245Z,97055.66
2022-11-26T02:51:10.132Z,97052.03
2022-11-26T02:53:37.682Z,97060.38
2022-11-26T02:56:09.030Z,97056.28
2022-11-26T02:58:36.146Z,97058.66
2022-11-26T03:01:05.310Z,97093.84
2022-11-26T03:03:37.865Z,97117.06
2022-11-26T03:06:09.941Z,97116.88
2022-11-26T03:08:36.697Z,97115.50
2022-11-26T03:11:03.550Z,97097.59
2022-11-26T03:13:30.269Z,97111.53
2022-11-26T03:15:57.012Z,97112.75
2022-11-26T03:18:23.540Z,97098.03
2022-11-26T03:20:52.400Z,97092.06
2022-11-26T03:23:19.137Z,97085.75
2022-11-26T03:25:45.688Z,97083.06
2022-11-26T03:28:12.129Z,97065.03
2022-11-26T03:30:38.621Z,97060.00
2022-11-26T03:33:05.624Z,97061.72
2022-11-26T03:35:32.531Z,97043.00
2022-11-26T03:37:58.980Z,97029.16
2022-11-26T03:40:25.559Z,97034.34
2022-11-26T03:42:51.945Z,97032.91
2022-11-26T03:45:18.798Z,97027.25
2022-11-26T03:47:45.284Z,97017.38
2022-11-26T03:50:11.879Z,97018.91
2022-11-26T03:52:38.307Z,97021.59
2022-11-26T03:55:06.764Z,97023.78
2022-11-26T03:57:33.172Z,97016.41
2022-11-26T03:59:59.763Z,97034.31
2022-11-26T04:02:26.489Z,97030.06
2022-11-26T04:04:52.893Z,97034.94
2022-11-26T04:07:19.328Z,97018.44
2022-11-26T04:09:47.686Z,97041.19
2022-11-26T04:12:14.101Z,97046.19
2022-11-26T04:14:40.874Z,97036.28
2022-11-26T04:17:07.473Z,97020.03
2022-11-26T04:19:33.941Z,97012.47
2022-11-26T04:22:00.447Z,97031.16
2022-11-26T04:24:26.882Z,97060.53
2022-11-26T04:26:53.314Z,97047.81
2022-11-26T04:29:20.042Z,97063.03
2022-11-26T04:31:46.856Z,97071.34
2022-11-26T04:34:14.430Z,97070.84
2022-11-26T04:36:40.848Z,97050.31
2022-11-26T04:39:07.270Z,97053.31
2022-11-26T04:41:33.732Z,97050.50
2022-11-26T04:44:00.121Z,97033.72
2022-11-26T04:46:26.583Z,97032.00
2022-11-26T04:48:52.952Z,97038.41
2022-11-26T04:51:19.441Z,97038.72
2022-11-26T04:53:45.852Z,97036.69
2022-11-26T04:56:12.286Z,97029.47
2022-11-26T04:58:38.764Z,97029.94
2022-11-26T05:01:05.631Z,97036.69
2022-11-26T05:03:32.133Z,97041.69
2022-11-26T05:05:58.501Z,97033.25
2022-11-26T05:08:25.011Z,97040.94
2022-11-26T05:10:55.301Z,97052.56
2022-11-26T05:13:22.101Z,97053.81
2022-11-26T05:15:48.499Z,97036.84
2022-11-26T05:18:14.931Z,97058.53
2022-11-26T05:20:41.363Z,97067.16
2022-11-26T05:23:07.781Z,97074.69
2022-11-26T05:25:34.208Z,97059.31
2022-11-26T05:28:00.949Z,97052.13
2022-11-26T05:30:27.394Z,97051.50
2022-11-26T05:32:55.321Z,97050.72
2022-11-26T05:35:23.636Z,97048.72
2022-11-26T05:37:50.056Z,97040.38
2022-11-26T05:40:16.592Z,97052.50
2022-11-26T05:42:43.422Z,97059.22
2022-11-26T05:45:10.055Z,97080.47
2022-11-26T05:47:36.532Z,97075.28
2022-11-26T05:50:05.490Z,97085.38
2022-11-26T05:52:31.983Z,97100.09
2022-11-26T05:54:58.438Z,97111.88
2022-11-26T05:57:24.918Z,97114.09
2022-11-26T05:59:51.392Z,97112.69
2022-11-26T06:02:18.254Z,97110.50
2022-11-26T06:04:44.802Z,97117.44
2022-11-26T06:07:11.315Z,97116.84
2022-11-26T06:09:39.824Z,97098.00
2022-11-26T06:12:06.600Z,97103.06
2022-11-26T06:14:33.034Z,97108.09
2022-11-26T06:16:59.999Z,97110.28
2022-11-26T06:19:26.492Z,97110.47
2022-11-26T06:21:53.073Z,97112.38
2022-11-26T06:24:19.436Z,97112.09
2022-11-26T06:26:45.885Z,97119.00
2022-11-26T06:29:13.211Z,97138.47
2022-11-26T06:31:39.666Z,97156.59
2022-11-26T06:34:07.040Z,97160.69
2022-11-26T06:36:33.401Z,97156.78
2022-11-26T06:39:01.657Z,97169.31
2022-11-26T06:41:28.088Z,97193.28
2022-11-26T06:43:54.489Z,97184.31
2022-11-26T06:46:20.974Z,97172.91
2022-11-26T06:48:47.379Z,97158.94
2022-11-26T06:51:16.645Z,97172.13
2022-11-26T06:53:43.296Z,97169.75
2022-11-26T06:56:18.050Z,97153.75
2022-11-26T06:58:46.921Z,97157.63
2022-11-26T07:01:18.269Z,97161.69
2022-11-26T07:03:44.685Z,97151.69
2022-11-26T07:06:19.149Z,97148.03
2022-11-26T07:08:45.748Z,97151.00
2022-11-26T07:11:12.377Z,97148.16
2022-11-26T07:13:39.092Z,97126.97
2022-11-26T07:16:06.105Z,97132.47
2022-11-26T07:18:33.510Z,97136.22
2022-11-26T07:21:06.985Z,97136.22
2022-11-26T07:23:33.519Z,97119.25
2022-11-26T07:26:00.529Z,97127.72
2022-11-26T07:28:27.853Z,97144.19
2022-11-26T07:30:54.321Z,97145.16
2022-11-26T07:33:21.365Z,97138.91
2022-11-26T07:35:47.801Z,97136.53
2022-11-26T07:38:14.256Z,97147.47
2022-11-26T07:40:40.677Z,97147.47
2022-11-26T07:43:07.102Z,97125.53
2022-11-26T07:45:35.581Z,97139.66
2022-11-26T07:48:01.998Z,97145.78
2022-11-26T07:50:28.405Z,97135.56
2022-11-26T07:52:54.894Z,97125.88
2022-11-26T07:55:21.613Z,97132.59
2022-11-26T07:57:48.004Z,97151.13
2022-11-26T08:00:14.741Z,97142.66
2022-11-26T08:02:41.171Z,97137.50
2022-11-26T08:05:07.678Z,97157.13
2022-11-26T08:07:34.803Z,97156.84
2022-11-26T08:10:01.626Z,97150.09
2022-11-26T08:12:28.001Z,97160.91
2022-11-26T08:14:54.360Z,97175.81
2022-11-26T08:17:20.764Z,97174.59
2022-11-26T08:19:47.533Z,97160.31
2022-11-26T08:22:14.056Z,97174.59
2022-11-26T08:24:40.669Z,97180.56
2022-11-26T08:27:07.151Z,97177.91
2022-11-26T08:29:35.749Z,97170.09
2022-11-26T08:32:04.041Z,97175.22
2022-11-26T08:34:30.511Z,97170.06
2022-11-26T08:36:56.987Z,97161.00
2022-11-26T08:39:23.454Z,97146.06
2022-11-26T08:41:52.377Z,97143.56
2022-11-26T08:44:19.390Z,97126.56
2022-11-26T08:46:45.846Z,97134.13
2022-11-26T08:49:13.308Z,97129.56
2022-11-26T08:51:39.709Z,97128.63
2022-11-26T08:54:06.222Z,97125.31
2022-11-26T08:56:32.802Z,97142.28
2022-11-26T08:58:59.218Z,97144.22
2022-11-26T09:01:27.485Z,97142.81
2022-11-26T09:03:55.531Z,97160.59
2022-11-26T09:06:22.733Z,97150.81
2022-11-26T09:09:07.718Z,97144.56
2022-11-26T09:11:36.164Z,97152.56
2022-11-26T09:14:03.032Z,97147.03
2022-11-26T09:16:29.818Z,97163.28
2022-11-26T09:18:56.538Z,97150.22
2022-11-26T09:21:23.039Z,97161.88
2022-11-26T09:23:49.536Z,97178.69
2022-11-26T09:26:16.521Z,97178.22
2022-11-26T09:28:42.957Z,97170.56
2022-11-26T09:31:09.478Z,97170.69
2022-11-26T09:33:36.645Z,97178.09
2022-11-26T09:36:04.362Z,97184.25
2022-11-26T09:38:30.784Z,97173.72
2022-11-26T09:41:16.155Z,97166.00
2022-11-26T09:43:53.334Z,97158.59
2022-11-26T09:46:25.144Z,97162.41
2022-11-26T09:48:53.717Z,97166.97
2022-11-26T09:51:20.581Z,97161.28
2022-11-26T09:53:49.360Z,97168.22
2022-11-26T09:56:26.242Z,97170.09
2022-11-26T09:59:02.863Z,97177.22
2022-11-26T10:01:31.937Z,97170.44
2022-11-26T10:03:58.881Z,97153.28
2022-11-26T10:06:25.353Z,97147.44
2022-11-26T10:09:01.722Z,97155.00
2022-11-26T10:11:54.327Z,97157.06
2022-11-26T10:14:24.332Z,97166.19
2022-11-26T10:16:58.271Z,97158.31
2022-11-26T10:19:29.728Z,97172.03
2022-11-26T10:21:59.613Z,97181.16
2022-11-26T10:24:29.169Z,97179.44
2022-11-26T10:26:58.287Z,97170.13
2022-11-26T10:29:33.421Z,97198.84
2022-11-26T10:32:03.817Z,97210.50
2022-11-26T10:34:39.379Z,97208.91
2022-11-26T10:37:06.164Z,97200.41
2022-11-26T10:39:32.558Z,97218.69
2022-11-26T10:42:04.066Z,97219.78
2022-11-26T10:44:35.662Z,97221.53
2022-11-26T10:47:21.719Z,97221.72
2022-11-26T10:49:49.060Z,97218.06
2022-11-26T10:52:17.721Z,97236.03
2022-11-26T10:54:47.106Z,97243.63
2022-11-26T10:57:15.544Z,97231.47
2022-11-26T10:59:53.541Z,97222.66
2022-11-26T11:02:20.027Z,97231.00
2022-11-26T11:04:49.600Z,97231.00
2022-11-26T11:07:41.248Z,97229.91
2022-11-26T11:10:10.749Z,97229.59
2022-11-26T11:12:37.921Z,97221.56
2022-11-26T11:15:20.279Z,97223.94
2022-11-26T11:17:54.229Z,97223.78
2022-11-26T11:20:25.357Z,97225.97
2022-11-26T11:23:19.965Z,97220.91
2022-11-26T11:25:48.332Z,97215.41
2022-11-26T11:28:22.449Z,97217.78
2022-11-26T11:30:59.207Z,97222.38
2022-11-26T11:33:28.920Z,97220.44
2022-11-26T11:36:01.446Z,97227.56
2022-11-26T11:38:29.651Z,97237.34
2022-11-26T11:40:56.498Z,97236.38
2022-11-26T11:43:23.876Z,97245.53
2022-11-26T11:45:58.053Z,97243.19
2022-11-26T11:48:43.563Z,97253.13
2022-11-26T11:51:22.151Z,97268.25
2022-11-26T11:54:01.020Z,97281.34
2022-11-26T11:57:02.771Z,97277.88
2022-11-26T12:00:00.191Z,97270.16
2022-11-26T12:02:49.597Z,97275.03
2022-11-26T12:05:16.019Z,97270.94
2022-11-26T12:07:47.901Z,97259.41
2022-11-26T12:10:25.522Z,97259.75
2022-11-26T12:12:54.189Z,97253.59
2022-11-26T12:15:26.886Z,97266.38
2022-11-26T12:18:12.241Z,97271.44
2022-11-26T12:20:54.158Z,97256.59
2022-11-26T12:23:34.156Z,97265.91
2022-11-26T12:26:03.370Z,97268.91
2022-11-26T12:28:34.489Z,97267.78
2022-11-26T12:31:04.328Z,97279.63
2022-11-26T12:33:37.576Z,97274.59
2022-11-26T12:36:24.270Z,97289.88
2022-11-26T12:38:54.748Z,97295.69
2022-11-26T12:41:43.739Z,97304.53
2022-11-26T12:44:28.548Z,97299.66
2022-11-26T12:47:16.759Z,97312.09
2022-11-26T12:50:02.138Z,97324.25
2022-11-26T12:52:31.297Z,97325.69
2022-11-26T12:55:13.382Z,97331.84
2022-11-26T12:57:42.551Z,97316.22
2022-11-26T13:00:15.091Z,97325.38
2022-11-26T13:02:48.488Z,97324.72
2022-11-26T13:05:32.584Z,97318.13
2022-11-26T13:07:59.111Z,97314.34
2022-11-26T13:10:31.958Z,97310.56
2022-11-26T13:13:04.445Z,97309.44
2022-11-26T13:15:30.814Z,97301.56
2022-11-26T13:17:59.561Z,97300.47
2022-11-26T13:20:37.304Z,97301.56
2022-11-26T13:23:22.246Z,97312.59
2022-11-26T13:26:02.501Z,97307.25
2022-11-26T13:28:34.777Z,97299.84
2022-11-26T13:31:19.981Z,97298.56
2022-11-26T13:34:08.188Z,97303.78
2022-11-26T13:36:56.153Z,97305.22
2022-11-26T13:39:41.891Z,97304.72
2022-11-26T13:42:14.376Z,97300.47
2022-11-26T13:45:21.449Z,97299.06
2022-11-26T13:47:51.396Z,97296.97
2022-11-26T13:50:24.885Z,97310.41
2022-11-26T13:53:15.585Z,97312.44
2022-11-26T13:55:44.469Z,97304.88
2022-11-26T13:58:21.863Z,97315.63
2022-11-26T14:00:48.390Z,97321.59
2022-11-26T14:03:33.537Z,97316.09
2022-11-26T14:06:05.055Z,97331.25
2022-11-26T14:08:44.053Z,97332.50
2022-11-26T14:11:11.652Z,97348.41
2022-11-26T14:13:38.512Z,97341.81
2022-11-26T14:16:05.188Z,97341.97
2022-11-26T14:18:53.780Z,97329.03
2022-11-26T14:21:20.510Z,97336.28
2022-11-26T14:23:50.823Z,97349.66
2022-11-26T14:26:17.315Z,97372.28
2022-11-26T14:28:43.938Z,97372.00
2022-11-26T14:31:13.132Z,97365.25
2022-11-26T14:33:45.135Z,97334.75
2022-11-26T14:36:30.697Z,97344.16
2022-11-26T14:39:08.389Z,97336.22
2022-11-26T14:41:57.881Z,97311.38
2022-11-26T14:44:28.641Z,97295.91
2022-11-26T14:46:58.013Z,97312.53
2022-11-26T14:49:41.795Z,97318.19
2022-11-26T14:52:37.464Z,97294.56
2022-11-26T14:55:07.021Z,97284.53
2022-11-26T14:57:52.414Z,97289.81
2022-11-26T15:00:29.553Z,97283.66
2022-11-26T15:02:56.879Z,97267.91
2022-11-26T15:05:24.573Z,97254.56
2022-11-26T15:08:04.490Z,97269.97
2022-11-26T15:10:33.956Z,97252.94
2022-11-26T15:13:26.524Z,97257.31
2022-11-26T15:15:53.934Z,97240.03
2022-11-26T15:18:22.380Z,97245.03
2022-11-26T15:20:52.558Z,97239.03
2022-11-26T15:23:24.224Z,97233.22
2022-11-26T15:25:54.885Z,97213.56
2022-11-26T15:28:22.425Z,97214.34
2022-11-26T15:30:56.506Z,97205.69
2022-11-26T15:33:23.503Z,97207.69
2022-11-26T15:35:57.331Z,97209.72
2022-11-26T15:38:31.369Z,97198.91
2022-11-26T15:41:05.727Z,97211.59
2022-11-26T15:43:35.200Z,97218.78
2022-11-26T15:46:03.746Z,97220.06
2022-11-26T15:48:51.600Z,97224.75
2022-11-26T15:51:34.948Z,97204.06
2022-11-26T15:54:02.632Z,97204.31
2022-11-26T15:56:32.024Z,97217.13
2022-11-26T15:59:04.133Z,97216.81
2022-11-26T16:01:32.729Z,97229.88
2022-11-26T16:04:06.227Z,97238.44
2022-11-26T16:06:33.984Z,97238.44
2022-11-26T16:09:26.212Z,97226.88
2022-11-26T16:11:58.333Z,97235.75
2022-11-26T16:14:35.700Z,97245.88
2022-11-26T16:17:08.264Z,97232.09
2022-11-26T16:19:35.744Z,97221.38
2022-11-26T16:22:03.439Z,97219.59
2022-11-26T16:24:33.426Z,97212.38
2022-11-26T16:27:05.277Z,97191.06
2022-11-26T16:29:32.872Z,97196.56
2022-11-26T16:31:59.421Z,97205.22
2022-11-26T16:34:27.290Z,97200.22
2022-11-26T16:37:23.121Z,97209.59
2022-11-26T16:39:51.267Z,97219.59
2022-11-26T16:42:22.204Z,97209.22
2022-11-26T16:44:49.691Z,97209.56
2022-11-26T16:47:20.270Z,97221.28
2022-11-26T16:49:46.907Z,97211.88
2022-11-26T16:52:15.003Z,97206.22
2022-11-26T16:54:42.014Z,97204.72
2022-11-26T16:57:13.380Z,97194.97
2022-11-26T16:59:40.057Z,97196.88
2022-11-26T17:02:14.576Z,97194.91
2022-11-26T17:04:42.902Z,97184.69
2022-11-26T17:07:20.879Z,97195.53
2022-11-26T17:09:47.427Z,97180.56
2022-11-26T17:12:18.284Z,97174.78
2022-11-26T17:14:45.110Z,97173.03
2022-11-26T17:17:20.378Z,97172.41
2022-11-26T17:19:50.408Z,97172.13
2022-11-26T17:22:16.874Z,97174.63
2022-11-26T17:24:43.256Z,97180.00
2022-11-26T17:27:16.494Z,97170.69
2022-11-26T17:29:44.569Z,97162.03
2022-11-26T17:32:12.629Z,97175.75
2022-11-26T17:34:39.753Z,97185.50
2022-11-26T17:37:15.434Z,97174.16
2022-11-26T17:39:42.860Z,97176.53
2022-11-26T17:42:11.425Z,97177.31
2022-11-26T17:44:37.808Z,97191.47
2022-11-26T17:47:16.947Z,97198.88
2022-11-26T17:49:44.038Z,97180.66
2022-11-26T17:52:11.136Z,97177.63
2022-11-26T17:54:37.629Z,97183.00
2022-11-26T17:57:04.340Z,97188.19
2022-11-26T17:59:31.130Z,97183.94
2022-11-26T18:01:57.728Z,97188.69
2022-11-26T18:04:26.090Z,97194.66
2022-11-26T18:07:12.714Z,97196.06
2022-11-26T18:09:41.855Z,97189.78
2022-11-26T18:12:18.015Z,97192.78
2022-11-26T18:14:48.355Z,97205.22
2022-11-26T18:17:14.760Z,97202.38
2022-11-26T18:19:43.748Z,97203.47
2022-11-26T18:22:12.541Z,97212.00
2022-11-26T18:24:39.141Z,97205.06
2022-11-26T18:27:05.649Z,97207.44
2022-11-26T18:29:32.274Z,97213.56
2022-11-26T18:31:58.785Z,97226.63
2022-11-26T18:34:25.953Z,97240.81
2022-11-26T18:36:54.076Z,97261.19
2022-11-26T18:39:20.606Z,97269.69
2022-11-26T18:41:47.032Z,97254.69
2022-11-26T18:44:14.125Z,97265.31
2022-11-26T18:46:40.576Z,97260.56
2022-11-26T18:49:07.072Z,97254.00
2022-11-26T18:51:33.604Z,97246.81
2022-11-26T18:54:00.032Z,97254.59
2022-11-26T18:56:26.570Z,97261.63
2022-11-26T18:58:53.071Z,97253.41
2022-11-26T19:01:27.674Z,97246.09
2022-11-26T19:03:54.770Z,97242.19
2022-11-26T19:06:22.899Z,97243.56
2022-11-26T19:08:50.423Z,97243.56
2022-11-26T19:11:18.452Z,97233.56
2022-11-26T19:13:44.950Z,97237.56
2022-11-26T19:16:16.493Z,97235.66
2022-11-26T19:18:44.131Z,97240.41
2022-11-26T19:21:36.721Z,97228.03
2022-11-26T19:24:04.724Z,97240.88
2022-11-26T19:26:31.405Z,97241.00
2022-11-26T19:29:01.619Z,97234.06
2022-11-26T19:31:28.133Z,97224.25
2022-11-26T19:33:58.291Z,97225.44
2022-11-26T19:36:24.898Z,97229.50
2022-11-26T19:38:55.386Z,97221.88
2022-11-26T19:41:25.611Z,97233.81
2022-11-26T19:43:52.948Z,97234.56
2022-11-26T19:46:20.462Z,97243.19
2022-11-26T19:48:48.082Z,97238.53
2022-11-26T19:51:15.417Z,97225.66
2022-11-26T19:53:42.135Z,97242.41
2022-11-26T19:56:11.361Z,97246.00
2022-11-26T19:58:37.817Z,97243.69
2022-11-26T20:01:08.090Z,97234.28
2022-11-26T20:03:37.519Z,97248.53
2022-11-26T20:06:06.157Z,97259.03
2022-11-26T20:08:33.400Z,97256.94
2022-11-26T20:11:03.421Z,97253.91
2022-11-26T20:13:29.951Z,97258.28
2022-11-26T20:15:56.463Z,97255.09
2022-11-26T20:18:22.994Z,97253.38
2022-11-26T20:20:59.194Z,97245.75
2022-11-26T20:23:26.006Z,97254.28
2022-11-26T20:25:52.690Z,97263.63
2022-11-26T20:28:19.598Z,97266.41
2022-11-26T20:30:46.151Z,97264.00
2022-11-26T20:33:15.451Z,97256.00
2022-11-26T20:35:42.603Z,97255.66
2022-11-26T20:38:09.474Z,97263.50
2022-11-26T20:40:40.185Z,97266.19
2022-11-26T20:43:06.777Z,97256.97
2022-11-26T20:45:33.329Z,97266.88
2022-11-26T20:47:59.827Z,97273.00
2022-11-26T20:50:26.850Z,97272.69
2022-11-26T20:52:53.316Z,97275.69
2022-11-26T20:55:22.619Z,97272.06
2022-11-26T20:57:49.450Z,97281.47
2022-11-26T21:00:17.389Z,97276.28
2022-11-26T21:02:44.809Z,97281.44
2022-11-26T21:05:12.067Z,97278.81
2022-11-26T21:07:38.588Z,97276.00
2022-11-26T21:10:05.346Z,97278.09
2022-11-26T21:12:31.862Z,97273.22
2022-11-26T21:14:58.606Z,97285.50
2022-11-26T21:17:27.405Z,97288.84
2022-11-26T21:19:53.933Z,97281.47
2022-11-26T21:22:20.393Z,97302.34
2022-11-26T21:24:46.844Z,97313.56
2022-11-26T21:27:13.403Z,97326.25
2022-11-26T21:29:40.050Z,97313.75
2022-11-26T21:32:07.282Z,97319.31
2022-11-26T21:34:34.603Z,97345.34
2022-11-26T21:37:01.174Z,97355.16
2022-11-26T21:39:29.921Z,97347.75
2022-11-26T21:41:56.383Z,97332.84
2022-11-26T21:44:22.901Z,97323.69
2022-11-26T21:46:49.392Z,97331.66
2022-11-26T21:49:15.806Z,97332.25
2022-11-26T21:51:42.702Z,97323.69
2022-11-26T21:54:10.023Z,97312.84
2022-11-26T21:56:37.066Z,97314.63
2022-11-26T21:59:03.740Z,97316.63
2022-11-26T22:01:31.491Z,97304.13
2022-11-26T22:03:59.391Z,97295.38
2022-11-26T22:06:26.241Z,97304.84
2022-11-26T22:08:52.697Z,97296.66
2022-11-26T22:11:20.446Z,97298.22
2022-11-26T22:13:46.963Z,97303.88
2022-11-26T22:16:14.901Z,97298.16
2022-11-26T22:18:42.209Z,97315.66
2022-11-26T22:21:13.338Z,97303.94
2022-11-26T22:23:40.134Z,97314.81
2022-11-26T22:26:06.777Z,97318.34
2022-11-26T22:28:33.316Z,97329.94
2022-11-26T22:30:59.907Z,97323.19
2022-11-26T22:33:26.476Z,97317.38
2022-11-26T22:35:55.489Z,97329.88
2022-11-26T22:38:21.930Z,97340.22
2022-11-26T22:40:48.364Z,97326.38
2022-11-26T22:43:14.804Z,97335.53
2022-11-26T22:45:41.330Z,97319.91
2022-11-26T22:48:07.872Z,97319.56
2022-11-26T22:50:34.310Z,97325.13
2022-11-26T22:53:00.694Z,97326.13
2022-11-26T22:55:27.206Z,97319.31
2022-11-26T22:57:53.669Z,97324.06
2022-11-26T23:00:40.755Z,97331.06
2022-11-26T23:03:07.829Z,97336.22
2022-11-26T23:05:36.904Z,97327.50
2022-11-26T23:08:03.422Z,97328.22
2022-11-26T23:10:29.886Z,97333.19
2022-11-26T23:12:58.808Z,97334.41
2022-11-26T23:15:25.217Z,97324.38
2022-11-26T23:17:51.813Z,97333.19
2022-11-26T23:20:18.374Z,97338.91
2022-11-26T23:22:44.825Z,97330.44
2022-11-26T23:25:11.345Z,97336.28
2022-11-26T23:27:37.752Z,97340.84
2022-11-26T23:30:04.895Z,97342.44
2022-11-26T23:32:32.546Z,97346.69
2022-11-26T23:34:59.222Z,97350.34
2022-11-26T23:37:25.617Z,97347.19
2022-11-26T23:39:52.153Z,97359.88
2022-11-26T23:42:18.543Z,97354.38
2022-11-26T23:44:44.946Z,97354.13
2022-11-26T23:47:13.277Z,97343.78
2022-11-26T23:49:40.033Z,97343.59
2022-11-26T23:52:06.659Z,97354.72
2022-11-26T23:54:33.110Z,97358.34
2022-11-26T23:56:59.554Z,97359.47
2022-11-26T23:59:26.054Z,97369.56
